createdAt,value
2023-02-27T00:00:31.529Z,100673.69
2023-02-27T00:02:58.859Z,100738.19
2023-02-27T00:05:26.125Z,100733.50
2023-02-27T00:07:53.894Z,100768.50
2023-02-27T00:10:43.246Z,100754.78
2023-02-27T00:13:13.291Z,100773.28
2023-02-27T00:15:41.101Z,100693.88
2023-02-27T00:18:11.009Z,100786.69
2023-02-27T00:20:44.503Z,100730.13
2023-02-27T00:23:13.920Z,100778.75
2023-02-27T00:25:45.528Z,100749.19
2023-02-27T00:28:16.802Z,100784.19
2023-02-27T00:33:24.166Z,100789.97
2023-02-27T00:36:17.374Z,100811.41
2023-02-27T00:41:45.009Z,100774.81
2023-02-27T00:44:12.527Z,100811.44
2023-02-27T00:46:42.544Z,100796.56
2023-02-27T00:49:09.836Z,100802.81
2023-02-27T00:51:39.871Z,100807.03
2023-02-27T00:54:19.828Z,100816.00
2023-02-27T00:56:48.300Z,100819.16
2023-02-27T00:59:15.670Z,100776.59
2023-02-27T01:01:42.346Z,100757.16
2023-02-27T01:04:14.280Z,100820.00
2023-02-27T01:06:55.914Z,100828.41
2023-02-27T01:09:22.572Z,100814.09
2023-02-27T01:11:52.534Z,100796.56
2023-02-27T01:14:19.541Z,100778.97
2023-02-27T01:16:46.348Z,100752.94
2023-02-27T01:19:15.038Z,100727.16
2023-02-27T01:21:52.778Z,100833.72
2023-02-27T01:24:26.570Z,100835.38
2023-02-27T01:26:53.563Z,100806.78
2023-02-27T01:29:21.560Z,100683.91
2023-02-27T01:31:57.649Z,100823.09
2023-02-27T01:34:24.368Z,100808.66
2023-02-27T01:37:08.489Z,100835.94
2023-02-27T01:39:50.780Z,100841.88
2023-02-27T01:42:21.772Z,100842.75
2023-02-27T01:45:16.489Z,100851.16
2023-02-27T01:47:49.483Z,100729.72
2023-02-27T01:50:20.008Z,100754.97
2023-02-27T01:52:59.458Z,100842.56
2023-02-27T01:55:49.444Z,100829.81
2023-02-27T01:58:20.014Z,100857.81
2023-02-27T02:00:52.364Z,100866.13
2023-02-27T02:03:33.714Z,100865.84
2023-02-27T02:06:07.552Z,100867.38
2023-02-27T02:08:52.794Z,100855.63
2023-02-27T02:11:27.045Z,100869.81
2023-02-27T02:13:59.697Z,100869.84
2023-02-27T02:17:05.494Z,100829.59
2023-02-27T02:19:52.058Z,100828.50
2023-02-27T02:22:38.569Z,100883.66
2023-02-27T02:25:45.263Z,100886.44
2023-02-27T02:28:43.051Z,100898.22
2023-02-27T02:31:52.757Z,100902.56
2023-02-27T02:34:31.671Z,100885.72
2023-02-27T02:37:08.159Z,100850.56
2023-02-27T02:40:08.850Z,100860.16
2023-02-27T02:42:58.883Z,100869.34
2023-02-27T02:45:48.089Z,100793.75
2023-02-27T02:48:33.220Z,100876.81
2023-02-27T02:51:32.364Z,100911.03
2023-02-27T02:54:17.108Z,100687.63
2023-02-27T02:56:50.286Z,100921.34
2023-02-27T02:59:32.096Z,100926.84
2023-02-27T03:02:36.708Z,100913.28
2023-02-27T03:05:17.488Z,100925.47
2023-02-27T03:08:27.924Z,100925.22
2023-02-27T03:10:58.704Z,100914.25
2023-02-27T03:13:34.885Z,100906.13
2023-02-27T03:16:26.574Z,100868.56
2023-02-27T03:19:13.074Z,100928.31
2023-02-27T03:22:10.815Z,100919.66
2023-02-27T03:25:10.545Z,100843.56
2023-02-27T03:28:10.938Z,100884.75
2023-02-27T03:31:10.187Z,100929.06
2023-02-27T03:34:32.657Z,100901.81
2023-02-27T03:37:31.302Z,100766.22
2023-02-27T03:40:07.996Z,100964.13
2023-02-27T03:42:48.015Z,100944.59
2023-02-27T03:45:44.299Z,100912.25
2023-02-27T03:48:11.881Z,100950.13
2023-02-27T03:50:58.776Z,100953.69
2023-02-27T03:54:10.388Z,100970.66
2023-02-27T03:57:11.513Z,100989.00
2023-02-27T03:59:40.998Z,100983.00
2023-02-27T04:02:14.494Z,100975.09
2023-02-27T04:04:56.999Z,100951.41
2023-02-27T04:07:29.638Z,100952.16
2023-02-27T04:10:14.505Z,100992.75
2023-02-27T04:13:20.247Z,101000.63
2023-02-27T04:16:07.655Z,100993.03
2023-02-27T04:18:51.974Z,100987.81
2023-02-27T04:21:45.964Z,101000.34
2023-02-27T04:24:34.618Z,101001.75
2023-02-27T04:27:43.690Z,100998.97
2023-02-27T04:30:33.568Z,101008.22
2023-02-27T04:33:31.285Z,100997.81
2023-02-27T04:36:13.163Z,101009.00
2023-02-27T04:38:56.356Z,100994.50
2023-02-27T04:41:32.583Z,100984.91
2023-02-27T04:44:05.468Z,100969.63
2023-02-27T04:46:38.584Z,100988.56
2023-02-27T04:49:34.326Z,100996.97
2023-02-27T04:52:22.319Z,100987.94
2023-02-27T04:55:17.159Z,101013.41
2023-02-27T04:58:25.255Z,100924.50
2023-02-27T05:00:59.541Z,101011.06
2023-02-27T05:03:37.823Z,101021.63
2023-02-27T05:06:07.162Z,101016.97
2023-02-27T05:08:56.930Z,101020.38
2023-02-27T05:11:49.623Z,100964.66
2023-02-27T05:14:33.913Z,101026.94
2023-02-27T05:19:49.945Z,101031.34
2023-02-27T05:22:38.708Z,101022.47
2023-02-27T05:25:49.849Z,101041.19
2023-02-27T05:29:05.896Z,101043.66
2023-02-27T05:31:51.801Z,100976.97
2023-02-27T05:34:34.354Z,101034.38
2023-02-27T05:37:07.749Z,101017.44
2023-02-27T05:39:41.116Z,101051.31
2023-02-27T05:42:25.160Z,101030.09
2023-02-27T05:45:37.898Z,101025.31
2023-02-27T05:48:17.285Z,101064.94
2023-02-27T05:50:49.958Z,101075.97
2023-02-27T05:53:41.273Z,101062.81
2023-02-27T05:56:14.562Z,101078.25
2023-02-27T05:58:46.139Z,101077.00
2023-02-27T06:01:13.077Z,101084.19
2023-02-27T06:03:41.112Z,101053.75
2023-02-27T06:06:23.622Z,101087.88
2023-02-27T06:08:59.612Z,101092.56
2023-02-27T06:11:29.589Z,101091.81
2023-02-27T06:14:00.226Z,101096.47
2023-02-27T06:16:38.588Z,100996.28
2023-02-27T06:19:11.783Z,101086.47
2023-02-27T06:21:42.033Z,101102.78
2023-02-27T06:24:14.802Z,101092.19
2023-02-27T06:26:41.587Z,101125.22
2023-02-27T06:29:13.945Z,101109.78
2023-02-27T06:31:40.636Z,101094.34
2023-02-27T06:34:16.118Z,101134.72
2023-02-27T06:36:49.107Z,101078.28
2023-02-27T06:39:24.645Z,101062.63
2023-02-27T06:41:58.093Z,101147.22
2023-02-27T06:44:32.100Z,101138.94
2023-02-27T06:46:59.236Z,100953.41
2023-02-27T06:49:26.445Z,101120.69
2023-02-27T06:52:10.877Z,101104.75
2023-02-27T06:54:49.559Z,101155.34
2023-02-27T06:57:16.864Z,101159.81
2023-02-27T06:59:50.132Z,101154.69
2023-02-27T07:02:24.902Z,101041.72
2023-02-27T07:04:52.391Z,101139.78
2023-02-27T07:07:34.107Z,101132.34
2023-02-27T07:10:34.784Z,101170.13
2023-02-27T07:13:17.300Z,101151.97
2023-02-27T07:15:45.487Z,101176.56
2023-02-27T07:18:15.290Z,101141.28
2023-02-27T07:20:42.171Z,101157.66
2023-02-27T07:23:08.847Z,101034.53
2023-02-27T07:25:48.810Z,101191.09
2023-02-27T07:28:27.716Z,101186.88
2023-02-27T07:30:57.882Z,101204.53
2023-02-27T07:33:24.703Z,101102.66
2023-02-27T07:35:51.495Z,101196.38
2023-02-27T07:38:30.581Z,101178.84
2023-02-27T07:40:58.746Z,101198.91
2023-02-27T07:43:26.057Z,101218.50
2023-02-27T07:46:04.073Z,101199.66
2023-02-27T07:48:32.073Z,101187.91
2023-02-27T07:51:06.607Z,101211.75
2023-02-27T07:53:37.783Z,101212.50
2023-02-27T07:56:05.843Z,101206.03
2023-02-27T07:58:32.618Z,101156.31
2023-02-27T08:00:59.339Z,101233.13
2023-02-27T08:03:32.193Z,101241.97
2023-02-27T08:06:03.204Z,101241.78
2023-02-27T08:08:33.346Z,101245.56
2023-02-27T08:11:09.306Z,101245.31
2023-02-27T08:14:00.658Z,101255.75
2023-02-27T08:16:25.120Z,101259.38
2023-02-27T08:18:57.036Z,101252.97
2023-02-27T08:21:28.719Z,101243.03
2023-02-27T08:24:01.404Z,101262.03
2023-02-27T08:26:28.511Z,101256.91
2023-02-27T08:28:58.481Z,101192.69
2023-02-27T08:31:25.404Z,101275.59
2023-02-27T08:34:09.426Z,101265.72
2023-02-27T08:36:40.000Z,101243.25
2023-02-27T08:39:07.597Z,101244.88
2023-02-27T08:41:37.753Z,101267.47
2023-02-27T08:44:04.752Z,101276.97
2023-02-27T08:46:34.937Z,101284.09
2023-02-27T08:49:01.595Z,101238.53
2023-02-27T08:51:35.944Z,101293.81
2023-02-27T08:54:03.597Z,101296.28
2023-02-27T08:56:30.412Z,101271.53
2023-02-27T08:59:00.050Z,101300.09
2023-02-27T09:01:40.624Z,101300.94
2023-02-27T09:04:24.202Z,101276.59
2023-02-27T09:06:58.388Z,101308.47
2023-02-27T09:09:25.050Z,101317.03
2023-02-27T09:11:52.032Z,101173.56
2023-02-27T09:14:19.907Z,101274.59
2023-02-27T09:16:53.382Z,101301.03
2023-02-27T09:19:29.569Z,101324.75
2023-02-27T09:21:59.494Z,101319.78
2023-02-27T09:24:29.086Z,101279.72
2023-02-27T09:26:55.860Z,101316.50
2023-02-27T09:29:24.057Z,101311.44
2023-02-27T09:31:56.590Z,101309.97
2023-02-27T09:34:40.712Z,101344.84
2023-02-27T09:37:07.562Z,101322.81
2023-02-27T09:39:44.682Z,101341.22
2023-02-27T09:42:33.848Z,101311.28
2023-02-27T09:45:07.708Z,101332.84
2023-02-27T09:47:58.800Z,101344.06
2023-02-27T09:50:56.683Z,101334.75
2023-02-27T09:53:34.879Z,101329.09
2023-02-27T09:56:34.511Z,101344.78
2023-02-27T09:59:43.192Z,101351.88
2023-02-27T10:02:53.349Z,101205.88
2023-02-27T10:05:45.957Z,101350.22
2023-02-27T10:08:26.129Z,101369.31
2023-02-27T10:11:16.312Z,101332.75
2023-02-27T10:14:19.027Z,101295.66
2023-02-27T10:16:57.313Z,101332.38
2023-02-27T10:19:33.545Z,101370.06
2023-02-27T10:22:05.311Z,101379.22
2023-02-27T10:24:38.099Z,101376.22
2023-02-27T10:27:15.314Z,101307.47
2023-02-27T10:29:46.567Z,101381.72
2023-02-27T10:32:28.571Z,101344.59
2023-02-27T10:35:40.166Z,101370.56
2023-02-27T10:38:55.062Z,101376.81
2023-02-27T10:41:32.234Z,101295.94
2023-02-27T10:44:05.239Z,101348.25
2023-02-27T10:46:38.400Z,101259.69
2023-02-27T10:49:22.286Z,101329.41
2023-02-27T10:52:20.263Z,101377.28
2023-02-27T10:54:49.073Z,101368.63
2023-02-27T10:57:28.248Z,101368.53
2023-02-27T11:00:01.131Z,101245.75
2023-02-27T11:02:47.605Z,101360.59
2023-02-27T11:05:29.304Z,101359.53
2023-02-27T11:08:10.460Z,101317.13
2023-02-27T11:10:54.164Z,101344.66
2023-02-27T11:13:36.799Z,101345.97
2023-02-27T11:16:26.661Z,101322.13
2023-02-27T11:18:54.479Z,101350.31
2023-02-27T11:21:45.127Z,101313.56
2023-02-27T11:24:20.194Z,101346.66
2023-02-27T11:27:10.212Z,101317.88
2023-02-27T11:29:43.761Z,101355.38
2023-02-27T11:32:20.204Z,101344.22
2023-02-27T11:34:50.081Z,101269.03
2023-02-27T11:37:35.265Z,101332.19
2023-02-27T11:40:16.650Z,101262.06
2023-02-27T11:42:54.516Z,101244.91
2023-02-27T11:46:12.168Z,101343.38
2023-02-27T11:48:15.230Z,101304.91
2023-02-27T11:51:17.489Z,101272.50
2023-02-27T11:54:19.693Z,101306.69
2023-02-27T11:57:10.826Z,101091.56
2023-02-27T11:59:47.972Z,101259.75
2023-02-27T12:02:29.339Z,101331.56
2023-02-27T12:05:24.649Z,101340.34
2023-02-27T12:08:17.372Z,101257.66
2023-02-27T12:11:07.751Z,101322.38
2023-02-27T12:13:46.148Z,101324.16
2023-02-27T12:16:39.638Z,101329.53
2023-02-27T12:19:21.765Z,101264.34
2023-02-27T12:22:02.377Z,101264.06
2023-02-27T12:24:45.731Z,101294.84
2023-02-27T12:28:07.085Z,101275.81
2023-02-27T12:30:42.650Z,101327.81
2023-02-27T12:33:31.924Z,101091.13
2023-02-27T12:36:08.612Z,101264.84
2023-02-27T12:38:41.536Z,101225.84
2023-02-27T12:41:38.449Z,101327.19
2023-02-27T12:44:41.950Z,101331.59
2023-02-27T12:47:52.860Z,101333.72
2023-02-27T12:50:22.931Z,101308.53
2023-02-27T12:53:18.233Z,101340.31
2023-02-27T12:55:55.381Z,101319.03
2023-02-27T12:58:42.741Z,101229.94
2023-02-27T13:01:55.393Z,101344.53
2023-02-27T13:04:52.387Z,101349.31
2023-02-27T13:07:38.198Z,101261.56
2023-02-27T13:10:22.951Z,101346.44
2023-02-27T13:13:37.745Z,101344.38
2023-02-27T13:16:26.908Z,101344.72
2023-02-27T13:19:11.705Z,101343.78
2023-02-27T13:22:00.161Z,101350.09
2023-02-27T13:24:43.719Z,101324.59
2023-02-27T13:27:32.982Z,101344.28
2023-02-27T13:30:24.667Z,101348.06
2023-02-27T13:33:24.444Z,101353.47
2023-02-27T13:37:05.231Z,101285.41
2023-02-27T13:39:45.890Z,101361.06
2023-02-27T13:42:27.976Z,101355.31
2023-02-27T13:45:29.079Z,101323.94
2023-02-27T13:48:09.409Z,101369.66
2023-02-27T13:50:52.206Z,101124.25
2023-02-27T13:53:27.820Z,101358.69
2023-02-27T13:56:19.241Z,101349.47
2023-02-27T13:58:46.893Z,101346.88
2023-02-27T14:01:37.756Z,101366.00
2023-02-27T14:04:18.242Z,101357.09
2023-02-27T14:06:52.992Z,101242.84
2023-02-27T14:09:44.903Z,101364.13
2023-02-27T14:12:50.747Z,101361.78
2023-02-27T14:15:26.714Z,101278.81
2023-02-27T14:18:18.056Z,101341.97
2023-02-27T14:21:00.492Z,101354.97
2023-02-27T14:23:47.753Z,101346.28
2023-02-27T14:26:16.538Z,101367.88
2023-02-27T14:29:04.892Z,101347.31
2023-02-27T14:31:34.534Z,101332.44
2023-02-27T14:34:09.218Z,101327.38
2023-02-27T14:37:09.150Z,101370.09
2023-02-27T14:39:50.201Z,101368.69
2023-02-27T14:42:46.007Z,101366.28
2023-02-27T14:45:24.187Z,101354.72
2023-02-27T14:47:52.739Z,101357.41
2023-02-27T14:50:23.913Z,101292.25
2023-02-27T14:53:00.179Z,101373.56
2023-02-27T14:55:32.652Z,101371.03
2023-02-27T14:58:12.792Z,101374.41
2023-02-27T15:00:59.407Z,101373.53
2023-02-27T15:03:50.075Z,101379.75
2023-02-27T15:06:24.909Z,101322.94
2023-02-27T15:08:56.964Z,101370.13
2023-02-27T15:11:29.059Z,101325.22
2023-02-27T15:14:13.786Z,101375.44
2023-02-27T15:16:44.200Z,101375.91
2023-02-27T15:19:30.317Z,101381.03
2023-02-27T15:22:00.444Z,101308.56
2023-02-27T15:24:49.610Z,101370.41
2023-02-27T15:27:25.553Z,101374.03
2023-02-27T15:30:04.355Z,101380.28
2023-02-27T15:32:39.768Z,101379.78
2023-02-27T15:38:26.915Z,101367.00
2023-02-27T15:41:03.014Z,101389.28
2023-02-27T15:43:39.591Z,101378.16
2023-02-27T15:46:07.087Z,101405.91
2023-02-27T15:51:30.615Z,101359.31
2023-02-27T15:54:02.858Z,101289.00
2023-02-27T15:56:35.063Z,101384.31
2023-02-27T15:59:21.683Z,101405.84
2023-02-27T16:02:04.517Z,101402.53
2023-02-27T16:04:49.773Z,101349.00
2023-02-27T16:10:26.206Z,101397.88
2023-02-27T16:13:05.539Z,101392.72
2023-02-27T16:15:47.741Z,101391.72
2023-02-27T16:18:43.256Z,101384.66
2023-02-27T16:21:21.222Z,101403.00
2023-02-27T16:24:14.600Z,101379.13
2023-02-27T16:27:15.924Z,101384.78
2023-02-27T16:29:48.383Z,101404.09
2023-02-27T16:32:33.717Z,101369.75
2023-02-27T16:35:29.431Z,101406.19
2023-02-27T16:38:12.087Z,101406.59
2023-02-27T16:43:29.015Z,101377.09
2023-02-27T16:46:05.421Z,101410.16
2023-02-27T16:48:49.839Z,101412.91
2023-02-27T16:51:26.965Z,101408.75
2023-02-27T16:56:47.950Z,101363.16
2023-02-27T16:59:50.469Z,101426.91
2023-02-27T17:02:20.856Z,101440.56
2023-02-27T17:04:48.975Z,101444.16
2023-02-27T17:07:18.822Z,101265.72
2023-02-27T17:09:53.388Z,101451.41
2023-02-27T17:12:24.638Z,101370.41
2023-02-27T17:14:58.269Z,101452.84
2023-02-27T17:17:45.516Z,101454.66
2023-02-27T17:20:17.336Z,101458.03
2023-02-27T17:22:49.867Z,101468.03
2023-02-27T17:25:34.968Z,101460.97
2023-02-27T17:28:02.723Z,101481.81
2023-02-27T17:30:42.690Z,101452.75
2023-02-27T17:33:12.481Z,101451.03
2023-02-27T17:35:48.209Z,101488.03
2023-02-27T17:38:18.369Z,101493.72
2023-02-27T17:40:48.847Z,101498.31
2023-02-27T17:43:36.237Z,101483.88
2023-02-27T17:46:07.609Z,101495.75
2023-02-27T17:48:35.616Z,101473.50
2023-02-27T17:51:12.788Z,101465.19
2023-02-27T17:53:44.064Z,101469.63
2023-02-27T17:56:12.456Z,101292.88
2023-02-27T17:58:42.325Z,101473.19
2023-02-27T18:01:15.168Z,101485.47
2023-02-27T18:03:44.124Z,101502.47
2023-02-27T18:06:15.000Z,101468.78
2023-02-27T18:08:42.132Z,101467.03
2023-02-27T18:11:13.081Z,101497.13
2023-02-27T18:13:40.766Z,101517.25
2023-02-27T18:16:16.132Z,101527.03
2023-02-27T18:18:43.843Z,101513.16
2023-02-27T18:21:15.333Z,101535.16
2023-02-27T18:23:45.720Z,101531.38
2023-02-27T18:26:30.317Z,101536.97
2023-02-27T18:29:04.610Z,101524.50
2023-02-27T18:31:38.876Z,101479.38
2023-02-27T18:34:19.285Z,101516.78
2023-02-27T18:36:46.211Z,101539.34
2023-02-27T18:39:15.884Z,101542.00
2023-02-27T18:41:42.619Z,101555.50
2023-02-27T18:44:10.606Z,101556.28
2023-02-27T18:46:41.762Z,101552.09
2023-02-27T18:49:09.171Z,101518.47
2023-02-27T18:51:38.332Z,101540.72
2023-02-27T18:54:08.239Z,101546.00
2023-02-27T18:56:37.607Z,101539.75
2023-02-27T18:59:07.837Z,101567.06
2023-02-27T19:01:50.181Z,101560.69
2023-02-27T19:04:17.299Z,101572.69
2023-02-27T19:06:47.096Z,101577.53
2023-02-27T19:09:18.519Z,101523.63
2023-02-27T19:11:48.031Z,101580.50
2023-02-27T19:14:21.555Z,101557.66
2023-02-27T19:17:01.410Z,101588.44
2023-02-27T19:19:33.140Z,101559.69
2023-02-27T19:22:15.757Z,101585.56
2023-02-27T19:24:59.840Z,101583.66
2023-02-27T19:27:54.186Z,101595.94
2023-02-27T19:30:33.258Z,101463.25
2023-02-27T19:33:14.550Z,101563.25
2023-02-27T19:38:51.860Z,101532.47
2023-02-27T19:41:44.285Z,101537.16
2023-02-27T19:44:23.111Z,101586.41
2023-02-27T19:46:58.525Z,101598.09
2023-02-27T19:52:41.772Z,101555.47
2023-02-27T19:55:15.209Z,101514.09
2023-02-27T19:57:45.224Z,101617.47
2023-02-27T20:03:14.350Z,101526.44
2023-02-27T20:05:49.510Z,101607.53
2023-02-27T20:08:20.339Z,101585.16
2023-02-27T20:13:43.803Z,101632.03
2023-02-27T20:16:31.606Z,101620.63
2023-02-27T20:19:22.011Z,101639.34
2023-02-27T20:24:37.129Z,101596.19
2023-02-27T20:27:04.048Z,101623.00
2023-02-27T20:29:40.243Z,101639.50
2023-02-27T20:32:14.973Z,101633.00
2023-02-27T20:34:47.118Z,101642.44
2023-02-27T20:37:13.754Z,101607.78
2023-02-27T20:39:40.568Z,101644.16
2023-02-27T20:42:08.610Z,101609.09
2023-02-27T20:44:38.590Z,101653.00
2023-02-27T20:47:11.144Z,101647.75
2023-02-27T20:49:38.763Z,101646.91
2023-02-27T20:52:11.263Z,101652.72
2023-02-27T20:54:38.363Z,101564.63
2023-02-27T20:57:08.840Z,101643.59
2023-02-27T20:59:36.174Z,101662.00
2023-02-27T21:02:08.633Z,101668.13
2023-02-27T21:04:47.760Z,101667.97
2023-02-27T21:07:37.788Z,101639.03
2023-02-27T21:10:21.503Z,101672.22
2023-02-27T21:12:48.200Z,101664.50
2023-02-27T21:15:25.370Z,101649.59
2023-02-27T21:18:21.369Z,101648.03
2023-02-27T21:20:50.687Z,101665.75
2023-02-27T21:23:25.353Z,101661.69
2023-02-27T21:28:32.538Z,101665.88
2023-02-27T21:31:24.029Z,101678.94
2023-02-27T21:33:52.662Z,101682.47
2023-02-27T21:36:47.717Z,101681.47
2023-02-27T21:39:32.222Z,101681.31
2023-02-27T21:42:00.300Z,101667.44
2023-02-27T21:44:30.564Z,101654.59
2023-02-27T21:47:10.293Z,101655.28
2023-02-27T21:49:38.601Z,101674.25
2023-02-27T21:52:06.236Z,101656.34
2023-02-27T21:54:47.087Z,101691.22
2023-02-27T21:57:32.115Z,101683.19
2023-02-27T22:00:11.763Z,101599.66
2023-02-27T22:02:46.859Z,101683.84
2023-02-27T22:05:20.325Z,101688.22
2023-02-27T22:07:47.322Z,101696.78
2023-02-27T22:10:22.478Z,101697.69
2023-02-27T22:12:49.303Z,101673.34
2023-02-27T22:15:18.908Z,101697.50
2023-02-27T22:17:45.709Z,101695.66
2023-02-27T22:20:19.192Z,101666.84
2023-02-27T22:22:47.324Z,101639.59
2023-02-27T22:25:25.406Z,101703.09
2023-02-27T22:27:58.983Z,101658.56
2023-02-27T22:30:27.582Z,101711.00
2023-02-27T22:32:55.126Z,101705.75
2023-02-27T22:35:23.612Z,101697.84
2023-02-27T22:37:52.255Z,101669.16
2023-02-27T22:40:22.573Z,101672.34
2023-02-27T22:42:49.279Z,101692.56
2023-02-27T22:45:19.028Z,101691.94
2023-02-27T22:47:46.364Z,101626.25
2023-02-27T22:50:17.819Z,101708.22
2023-02-27T22:53:03.525Z,101687.75
2023-02-27T22:55:38.414Z,101708.88
2023-02-27T22:58:10.851Z,101665.75
2023-02-27T23:00:37.818Z,101694.88
2023-02-27T23:03:07.106Z,101717.19
2023-02-27T23:05:38.147Z,101683.97
2023-02-27T23:08:12.158Z,101724.09
2023-02-27T23:10:42.992Z,101701.72
2023-02-27T23:13:22.668Z,101710.84
2023-02-27T23:15:52.456Z,101707.03
2023-02-27T23:18:22.293Z,101710.91
2023-02-27T23:20:53.052Z,101691.34
2023-02-27T23:23:26.437Z,101715.34
2023-02-27T23:25:53.751Z,101698.38
2023-02-27T23:28:20.519Z,101712.63
2023-02-27T23:31:00.334Z,101715.50
2023-02-27T23:33:29.053Z,101719.75
2023-02-27T23:36:00.411Z,101687.53
2023-02-27T23:38:27.958Z,101733.00
2023-02-27T23:40:57.956Z,101727.91
2023-02-27T23:43:43.862Z,101749.75
2023-02-27T23:46:14.794Z,101709.63
2023-02-27T23:48:51.893Z,101748.97
2023-02-27T23:51:30.013Z,101726.94
2023-02-27T23:54:00.558Z,101693.72
2023-02-27T23:56:35.917Z,101744.03
